Ilicinea, Brazil
Current Conditions -  °F | °C
As of 2:00 PM on Sunday 21 Dec 2014 (Local Time) from SBYS Reporting Station
Light Rain Light Rain  
Wind Chill: 77°   Ceiling: 3000
Heat Index: 78°   Visibility: 3mi
Dew Point: 72°   Wind: 12mph
Humidity: 83%   Direction: 350°N
Pressure: NA   Gusts: NA
Location:  20.94°S, 45.83°W
Report Text: SBYS 211600Z 35010KT 5000 -RA SCT020 BKN030 FEW035TCU 25/22 Q1014
Loading
Personal Weather Stations






























Interactive Weather Map New forecast layout! Learn more

10-Day Weather Forecast

Advertisements
Track Severe Weather on mobile